Andrews, Indiana
Current Conditions -  °F | °C
As of 8:54 AM on Thursday 30 Oct 2014 (Local Time) from KFWA Reporting Station
Overcast Overcast  
Wind Chill:   Ceiling: 3600
Heat Index:   Visibility: 10mi
Dew Point:   Wind: 3mph
Humidity: 80%   Direction: 230°SW
Pressure: 30.16"   Gusts: NA
Location:  40.86°N, 85.6°W
Report Text: KFWA 301254Z 23003KT 10SM OVC036 06/03 A3016 RMK AO2 SLP219 T00610028
Loading
Personal Weather Stations






























Interactive Weather Map
Tropical Storm Tracking
New forecast layout! Learn more

10-Day Weather Forecast

Advertisements
Track Severe Weather on mobile